»·PEaware :: N24994 KAVX-KSAN

N24994 :: KAVX-KSAN

FLIGHT INFORMATION

Flight Status: Arrived
Operator: Privately registered:
United States
More flights under this callsign
Pilot: Chris W. (16363)
Aircraft: CESSNA 172 SKYHAWK
(C172)
More flights by this aircraft type
Origin: KAVX Catalina
United States
Destination: KSAN San Diego Intl-Lindbergh
United States
More flights between these airports :: More routes between these airports
Route: SXC V208 OCN V23 MZB
File this flight plan on PilotEdge
Remarks: TEC route CSTN57 (for I-8)
Altitude:
(Current/Filed)
5,000ft
Speed:
(Current/Filed)
110kts
Departed: 08-Jan-18 10:41 PM
Arrived: 08-Jan-18 11:56 PM
Distance/Time
Traveled:
74nm/1:15
Distance/Time
To Go:
Arrived

Flight Plot

Page will automatically refresh every two minutes.


Map Options




Map Legend


Flown Route
Filed Route
Departure Airport
Arrival Airport
Navaid (VOR, NDB)
Fix

Horizontal Profiles

Position Reports

Time Latitude Longitude Heading Altitude Ground
Speed
08-Jan-18 22:38 33.403294 -118.415952 51 1551ft 0kts
08-Jan-18 22:39 33.403294 -118.415952 50 1551ft 0kts
08-Jan-18 22:40 33.403294 -118.415952 51 1551ft 0kts
08-Jan-18 22:41 33.403294 -118.415953 53 1551ft 0kts
08-Jan-18 22:42 33.403294 -118.415952 54 1551ft 0kts
08-Jan-18 22:43 33.403297 -118.415947 57 1551ft 0kts
08-Jan-18 22:44 33.404618 -118.415069 343 1544ft 0kts
08-Jan-18 22:45 33.406990 -118.411682 56 1502ft 28kts
08-Jan-18 22:46 33.407178 -118.411341 124 1499ft 2kts
08-Jan-18 22:47 33.404429 -118.416884 237 1591ft 86kts
08-Jan-18 22:48 33.400722 -118.426698 59 1875ft 111kts
08-Jan-18 22:49 33.410735 -118.411484 199 1557ft 64kts
08-Jan-18 22:50 33.407116 -118.411533 206 1501ft 15kts
08-Jan-18 22:51 33.407155 -118.411364 11 1499ft 0kts
08-Jan-18 22:52 33.402765 -118.420410 220 1769ft 74kts
08-Jan-18 22:53 33.392652 -118.441907 240 2636ft 86kts
08-Jan-18 22:54 33.379115 -118.454354 179 3684ft 58kts
08-Jan-18 22:55 33.365589 -118.472378 223 4499ft 82kts
08-Jan-18 22:56 33.351021 -118.500420 226 4690ft 118kts
08-Jan-18 22:57 33.329720 -118.524806 149 4725ft 98kts
08-Jan-18 22:58 33.327528 -118.488178 94 4696ft 118kts
08-Jan-18 22:59 33.330004 -118.448642 92 4674ft 119kts
08-Jan-18 23:00 33.330610 -118.409780 94 4683ft 119kts
08-Jan-18 23:01 33.334962 -118.370285 92 4672ft 120kts
08-Jan-18 23:02 33.339250 -118.331047 94 4678ft 118kts
08-Jan-18 23:03 33.357614 -118.296684 102 4647ft 117kts
08-Jan-18 23:04 33.353490 -118.258272 103 4645ft 118kts
08-Jan-18 23:05 33.349530 -118.218758 109 4659ft 122kts
08-Jan-18 23:06 33.344616 -118.181860 109 4992ft 121kts
08-Jan-18 23:07 33.339237 -118.141230 108 4989ft 125kts
08-Jan-18 23:08 33.333721 -118.099493 109 4981ft 128kts
08-Jan-18 23:09 33.328113 -118.057445 107 4974ft 128kts
08-Jan-18 23:10 33.322484 -118.015681 108 4962ft 126kts
08-Jan-18 23:11 33.319387 -117.992604 107 4961ft 125kts
08-Jan-18 23:12 33.316749 -117.972960 106 4953ft 123kts
08-Jan-18 23:13 33.311580 -117.934535 101 4942ft 113kts
08-Jan-18 23:14 33.306699 -117.898162 101 5012ft 109kts
08-Jan-18 23:15 33.302211 -117.861324 91 5006ft 114kts
08-Jan-18 23:16 33.302507 -117.823198 97 4998ft 115kts
08-Jan-18 23:17 33.294658 -117.786287 109 4985ft 114kts
08-Jan-18 23:18 33.288863 -117.748700 106 4976ft 115kts
08-Jan-18 23:19 33.284346 -117.710450 98 4968ft 116kts
08-Jan-18 23:20 33.282764 -117.671779 95 4958ft 117kts
08-Jan-18 23:21 33.264282 -117.641489 141 4933ft 114kts
08-Jan-18 23:22 33.249285 -117.616174 122 4924ft 114kts
08-Jan-18 23:23 33.256103 -117.579004 80 4980ft 116kts
08-Jan-18 23:24 33.251617 -117.542471 125 4965ft 115kts
08-Jan-18 23:25 33.246286 -117.507902 85 4948ft 117kts
08-Jan-18 23:26 33.244871 -117.469546 104 4930ft 116kts
08-Jan-18 23:27 33.238624 -117.432338 89 4916ft 116kts
08-Jan-18 23:28 33.211316 -117.416441 171 4874ft 128kts
08-Jan-18 23:29 33.176064 -117.410772 171 4861ft 130kts
08-Jan-18 23:30 33.139693 -117.409848 176 4851ft 132kts
08-Jan-18 23:31 33.102226 -117.410082 176 4856ft 138kts
08-Jan-18 23:32 33.063619 -117.406961 178 4867ft 139kts
08-Jan-18 23:33 33.025995 -117.403728 179 5003ft 138kts
08-Jan-18 23:34 33.006687 -117.402979 177 5003ft 135kts
08-Jan-18 23:35 32.970357 -117.401062 176 5002ft 130kts
08-Jan-18 23:36 32.934288 -117.398958 176 5002ft 129kts
08-Jan-18 23:37 32.898463 -117.396830 176 5002ft 129kts
08-Jan-18 23:38 32.862543 -117.394693 176 5002ft 129kts
08-Jan-18 23:39 32.826595 -117.392551 176 5002ft 129kts
08-Jan-18 23:40 32.790659 -117.390075 164 5001ft 129kts
08-Jan-18 23:41 32.775867 -117.353224 103 5002ft 129kts
08-Jan-18 23:42 32.767908 -117.313432 102 5002ft 128kts
08-Jan-18 23:43 32.760116 -117.271841 102 5002ft 128kts
08-Jan-18 23:44 32.753733 -117.237270 102 5002ft 128kts
08-Jan-18 23:45 32.744822 -117.188897 102 5002ft 128kts
08-Jan-18 23:46 32.738450 -117.154337 102 5002ft 128kts
08-Jan-18 23:47 32.729500 -117.105880 102 5002ft 128kts
08-Jan-18 23:48 32.723095 -117.071259 102 5002ft 128kts
08-Jan-18 23:49 32.715409 -117.029795 102 5002ft 128kts
08-Jan-18 23:50 32.707558 -116.987535 102 4823ft 138kts
08-Jan-18 23:51 32.699169 -116.942597 102 4439ft 135kts
08-Jan-18 23:52 32.691485 -116.901274 101 4787ft 107kts
08-Jan-18 23:53 32.666979 -116.890159 237 4393ft 139kts
08-Jan-18 23:54 32.668555 -116.935085 290 3972ft 141kts
08-Jan-18 23:55 32.682376 -116.978236 288 3560ft 139kts
08-Jan-18 23:56 32.692606 -117.022461 270 3156ft 139kts
08-Jan-18 23:57 32.703208 -117.067328 283 2379ft 150kts
08-Jan-18 23:58 32.712101 -117.104273 292 1354ft 87kts
08-Jan-18 23:59 32.719990 -117.128775 285 819ft 68kts
09-Jan-18 00:00 32.724014 -117.148500 281 634ft 59kts
09-Jan-18 00:01 32.728863 -117.167843 285 370ft 66kts
09-Jan-18 00:02 32.733008 -117.184228 355 16ft 17kts
09-Jan-18 00:03 32.733158 -117.184249 351 17ft 0kts

Navigation Log

Ident Type
1. KAVX Airport
2. SXC Navaid
3. AVOLS Fix
4. PACIF Fix
5. HUBRD Fix
6. OCN Navaid
7. HURSI Fix
8. CARIF Fix
9. MZB Navaid
10. KSAN Airport